Observation data for Silverton on 05/27/2019      Previous  Date  Next       Current Mesonet Observations  Soil Data  Daily Summary Page  Observations in Plain Language
KSVS 270500Z 13008KT 19/18 A2989 RMK A01 T01940183  RH  099%=      5-min Rain = 0
KSVS 270505Z 13008KT 19/18 A2989 RMK A01 T01930183  RH  099%=      5-min Rain = 0
KSVS 270510Z 13009KT 19/18 A2989 RMK A01 T01920183  RH  099%=      5-min Rain = 0
KSVS 270515Z 14009G14KT 19/18 A2989 RMK A01 T01930183  RH  099%=      5-min Rain = 0
KSVS 270520Z 15009KT 19/18 A2989 RMK A01 T01920182  RH  099%=      5-min Rain = 0
KSVS 270525Z 15010KT 19/18 A2988 RMK A01 T01940183  RH  098%=      5-min Rain = 0
KSVS 270530Z 15011KT 20/18 A2988 RMK A01 T01950182  RH  097%=      5-min Rain = 0
KSVS 270535Z 15010KT 20/18 A2988 RMK A01 T01970181  RH  096%=      5-min Rain = 0
KSVS 270540Z 16009KT 20/18 A2989 RMK A01 T01970179  RH  094%=      5-min Rain = 0
KSVS 270545Z 17008KT 20/18 A2989 RMK A01 T01970179  RH  094%=      5-min Rain = 0
KSVS 270550Z 17008KT 20/18 A2989 RMK A01 T01970179  RH  094%=      5-min Rain = 0
KSVS 270555Z 17008KT 20/18 A2989 RMK A01 T01980178  RH  093%=      5-min Rain = 0
KSVS 270600Z 17005KT 20/18 A2989 RMK A01 T01970178  RH  094%=      5-min Rain = 0
KSVS 270605Z 16006KT 20/18 A2989 RMK A01 T01960177  RH  094%=      5-min Rain = 0
KSVS 270610Z 17006KT 19/18 A2989 RMK A01 T01930177  RH  095%=      5-min Rain = 0
KSVS 270615Z 18006KT 19/18 A299 RMK A01 T01940177  RH  095%=      5-min Rain = 0
KSVS 270620Z 18007KT 19/18 A2991 RMK A01 T01930176  RH  095%=      5-min Rain = 0
KSVS 270625Z 19008KT 19/18 A2991 RMK A01 T01930177  RH  095%=      5-min Rain = 0
KSVS 270630Z 18009KT 19/18 A2991 RMK A01 T01910175  RH  095%=      5-min Rain = 0
KSVS 270635Z 18008KT 19/18 A2991 RMK A01 T01910176  RH  095%=      5-min Rain = 0
KSVS 270640Z 18009KT 19/18 A2991 RMK A01 T01900176  RH  096%=      5-min Rain = 0
KSVS 270645Z 18008KT 19/18 A2991 RMK A01 T01920176  RH  095%=      5-min Rain = 0
KSVS 270650Z 18009KT 19/18 A299 RMK A01 T01910176  RH  095%=      5-min Rain = 0
KSVS 270655Z 18008KT 19/18 A299 RMK A01 T01910175  RH  096%=      5-min Rain = 0
KSVS 270700Z 18009KT 19/18 A2989 RMK A01 T01900175  RH  096%=      5-min Rain = 0
KSVS 270705Z 18009KT 19/18 A2989 RMK A01 T01880175  RH  097%=      5-min Rain = 0
KSVS 270710Z 18008KT 19/18 A2989 RMK A01 T01890176  RH  097%=      5-min Rain = 0
KSVS 270715Z 17008KT 19/18 A2989 RMK A01 T01880175  RH  097%=      5-min Rain = 0
KSVS 270720Z 17008KT 19/18 A2989 RMK A01 T01890176  RH  097%=      5-min Rain = 0
KSVS 270725Z 18009KT 19/18 A2989 RMK A01 T01890176  RH  097%=      5-min Rain = 0
KSVS 270730Z 17009KT 19/18 A2989 RMK A01 T01890176  RH  097%=      5-min Rain = 0
KSVS 270735Z 17009KT 19/18 A2989 RMK A01 T01880176  RH  097%=      5-min Rain = 0
KSVS 270740Z 17009KT 19/18 A2988 RMK A01 T01880176  RH  098%=      5-min Rain = 0
KSVS 270745Z 17009KT 19/18 A2988 RMK A01 T01880177  RH  098%=      5-min Rain = 0
KSVS 270750Z 17009KT 19/18 A2988 RMK A01 T01890177  RH  098%=      5-min Rain = 0
KSVS 270755Z 17009KT 19/18 A2988 RMK A01 T01890177  RH  098%=      5-min Rain = 0
KSVS 270800Z 18010KT 19/18 A2987 RMK A01 T01900177  RH  097%=      5-min Rain = 0
KSVS 270805Z 18010KT 19/18 A2987 RMK A01 T01890177  RH  097%=      5-min Rain = 0
KSVS 270810Z 18009KT 19/18 A2987 RMK A01 T01890177  RH  097%=      5-min Rain = 0
KSVS 270815Z 18009KT 19/18 A2987 RMK A01 T01880176  RH  098%=      5-min Rain = 0
KSVS 270820Z 17009KT 19/18 A2987 RMK A01 T01880176  RH  098%=      5-min Rain = 0
KSVS 270825Z 17009KT 19/18 A2987 RMK A01 T01870176  RH  098%=      5-min Rain = 0
KSVS 270830Z 17009KT 19/18 A2987 RMK A01 T01860176  RH  099%=      5-min Rain = 0
KSVS 270835Z 17009KT 19/18 A2986 RMK A01 T01860177  RH  099%=      5-min Rain = 0
KSVS 270840Z 17009KT 19/18 A2986 RMK A01 T01860176  RH  099%=      5-min Rain = 0
KSVS 270845Z 17009KT 19/18 A2986 RMK A01 T01850176  RH  100%=      5-min Rain = 0
KSVS 270850Z 16008KT 18/18 A2986 RMK A01 T01830175  RH  100%=      5-min Rain = 0
KSVS 270855Z 16008KT 18/17 A2986 RMK A01 T01810173  RH  100%=      5-min Rain = 0
KSVS 270900Z 16008KT 18/17 A2986 RMK A01 T01800172  RH  100%=      5-min Rain = 0
KSVS 270905Z 16008KT 18/17 A2986 RMK A01 T01790172  RH  100%=      5-min Rain = 0
KSVS 270910Z 16008KT 18/17 A2986 RMK A01 T01790171  RH  100%=      5-min Rain = 0
KSVS 270915Z 17007KT 18/17 A2986 RMK A01 T01790171  RH  100%=      5-min Rain = 0
KSVS 270920Z 17007KT 18/17 A2986 RMK A01 T01780170  RH  100%=      5-min Rain = 0
KSVS 270925Z 18007KT 18/17 A2986 RMK A01 T01780170  RH  100%=      5-min Rain = 0
KSVS 270930Z 18007KT 18/17 A2986 RMK A01 T01780170  RH  100%=      5-min Rain = 0
KSVS 270935Z 18007KT 18/17 A2986 RMK A01 T01770169  RH  100%=      5-min Rain = 0
KSVS 270940Z 18007KT 18/17 A2986 RMK A01 T01770169  RH  100%=      5-min Rain = 0
KSVS 270945Z 18007KT 18/17 A2986 RMK A01 T01760169  RH  100%=      5-min Rain = 0
KSVS 270950Z 18007KT 18/17 A2986 RMK A01 T01770169  RH  100%=      5-min Rain = 0
KSVS 270955Z 18008KT 18/17 A2986 RMK A01 T01790171  RH  100%=      5-min Rain = 0
KSVS 271000Z 18007KT 18/17 A2986 RMK A01 T01780171  RH  100%=      5-min Rain = 0
KSVS 271005Z 18007KT 18/17 A2986 RMK A01 T01770169  RH  100%=      5-min Rain = 0
KSVS 271010Z 18007KT 18/17 A2986 RMK A01 T01760169  RH  100%=      5-min Rain = 0
KSVS 271015Z 19007KT 18/17 A2986 RMK A01 T01780170  RH  100%=      5-min Rain = 0
KSVS 271020Z 19007KT 18/17 A2986 RMK A01 T01790171  RH  100%=      5-min Rain = 0
KSVS 271025Z 19007KT 18/17 A2986 RMK A01 T01790171  RH  100%=      5-min Rain = 0
KSVS 271030Z 20007KT 18/17 A2986 RMK A01 T01780170  RH  100%=      5-min Rain = 0
KSVS 271035Z 20007KT 18/17 A2986 RMK A01 T01750168  RH  100%=      5-min Rain = 0
KSVS 271040Z 20007KT 18/17 A2986 RMK A01 T01750167  RH  100%=      5-min Rain = 0
KSVS 271045Z 20006KT 17/17 A2986 RMK A01 T01720165  RH  100%=      5-min Rain = 0
KSVS 271050Z 20006KT 17/16 A2987 RMK A01 T01690162  RH  100%=      5-min Rain = 0
KSVS 271055Z 20006KT 17/16 A2987 RMK A01 T01670160  RH  100%=      5-min Rain = 0
KSVS 271100Z 21006KT 17/16 A2987 RMK A01 T01650157  RH  100%=      5-min Rain = 0
KSVS 271105Z 21006KT 16/16 A2987 RMK A01 T01630156  RH  100%=      5-min Rain = 0
KSVS 271110Z 22006KT 16/16 A2987 RMK A01 T01620155  RH  100%=      5-min Rain = 0
KSVS 271115Z 22006KT 16/15 A2987 RMK A01 T01610153  RH  100%=      5-min Rain = 0
KSVS 271120Z 22006KT 16/15 A2987 RMK A01 T01600153  RH  100%=      5-min Rain = 0
KSVS 271125Z 22007KT 16/15 A2987 RMK A01 T01610154  RH  100%=      5-min Rain = 0
KSVS 271130Z 22006KT 16/16 A2987 RMK A01 T01630156  RH  100%=      5-min Rain = 0
KSVS 271135Z 22006KT 16/16 A2987 RMK A01 T01630156  RH  100%=      5-min Rain = 0
KSVS 271140Z 22006KT 16/16 A2987 RMK A01 T01640157  RH  100%=      5-min Rain = 0
KSVS 271145Z 22006KT 17/16 A2987 RMK A01 T01660158  RH  100%=      5-min Rain = 0
KSVS 271150Z 21007KT 17/16 A2987 RMK A01 T01690161  RH  100%=      5-min Rain = 0
KSVS 271155Z 21007KT 17/16 A2987 RMK A01 T01710164  RH  100%=      5-min Rain = 0
KSVS 271200Z 22007KT 17/17 A2988 RMK A01 T01740166  RH  100%=      5-min Rain = 0
KSVS 271205Z 22008KT 18/17 A2988 RMK A01 T01770169  RH  100%=      5-min Rain = 0
KSVS 271210Z 22008KT 18/17 A2988 RMK A01 T01800172  RH  100%=      5-min Rain = 0
KSVS 271215Z 22009KT 18/17 A2988 RMK A01 T01820174  RH  100%=      5-min Rain = 0
KSVS 271220Z 22010KT 19/18 A2988 RMK A01 T01850177  RH  100%=      5-min Rain = 0
KSVS 271225Z 22010KT 19/18 A2988 RMK A01 T01870178  RH  099%=      5-min Rain = 0
KSVS 271230Z 22010G15KT 19/18 A2988 RMK A01 T01890179  RH  099%=      5-min Rain = 0
KSVS 271235Z 22010KT 19/18 A2988 RMK A01 T01900179  RH  098%=      5-min Rain = 0
KSVS 271240Z 21010KT 19/18 A2988 RMK A01 T01920179  RH  097%=      5-min Rain = 0
KSVS 271245Z 21010KT 19/18 A2988 RMK A01 T01930180  RH  097%=      5-min Rain = 0
KSVS 271250Z 21009KT 19/18 A2988 RMK A01 T01940180  RH  097%=      5-min Rain = 0
KSVS 271255Z 21007KT 20/18 A2988 RMK A01 T01960181  RH  096%=      5-min Rain = 0
KSVS 271300Z 20007KT 20/18 A2988 RMK A01 T01980181  RH  095%=      5-min Rain = 0
KSVS 271305Z 19006KT 20/18 A2988 RMK A01 T02000182  RH  094%=      5-min Rain = 0
KSVS 271310Z 19006KT 20/18 A2988 RMK A01 T02020183  RH  093%=      5-min Rain = 0
KSVS 271315Z 19006KT 20/18 A2989 RMK A01 T02030182  RH  093%=      5-min Rain = 0
KSVS 271320Z 20008KT 20/18 A2989 RMK A01 T02040183  RH  092%=      5-min Rain = 0
KSVS 271325Z 20008G13KT 21/18 A2989 RMK A01 T02060184  RH  092%=      5-min Rain = 0
KSVS 271330Z 20009KT 21/18 A2989 RMK A01 T02060184  RH  092%=      5-min Rain = 0
KSVS 271335Z 20011G16KT 21/18 A2989 RMK A01 T02080184  RH  091%=      5-min Rain = 0
KSVS 271340Z 20012KT 21/19 A2988 RMK A01 T02090185  RH  091%=      5-min Rain = 0
KSVS 271345Z 20011G16KT 21/19 A2988 RMK A01 T02110186  RH  091%=      5-min Rain = 0
KSVS 271350Z 20013G19KT 21/19 A2988 RMK A01 T02120186  RH  090%=      5-min Rain = 0
KSVS 271355Z 20013G18KT 21/19 A2988 RMK A01 T02130187  RH  090%=      5-min Rain = 0
KSVS 271400Z 21013KT 22/19 A2988 RMK A01 T02150189  RH  090%=      5-min Rain = 0
KSVS 271405Z 20012G17KT 22/19 A2988 RMK A01 T02170189  RH  089%=      5-min Rain = 0
KSVS 271410Z 20014KT 22/19 A2988 RMK A01 T02160187  RH  088%=      5-min Rain = 0
KSVS 271415Z 20014G19KT 22/19 A2988 RMK A01 T02170188  RH  088%=      5-min Rain = 0
KSVS 271420Z 19015KT 22/19 A2988 RMK A01 T02190188  RH  087%=      5-min Rain = 0
KSVS 271425Z 20014KT 22/19 A2989 RMK A01 T02190188  RH  087%=      5-min Rain = 0
KSVS 271430Z 20013G19KT 22/19 A2989 RMK A01 T02210190  RH  087%=      5-min Rain = 0
KSVS 271435Z 20014KT 22/19 A2989 RMK A01 T02220189  RH  086%=      5-min Rain = 0
KSVS 271440Z 20013G18KT 22/19 A2989 RMK A01 T02220189  RH  086%=      5-min Rain = 0
KSVS 271445Z 20014KT 22/19 A2989 RMK A01 T02240188  RH  085%=      5-min Rain = 0
KSVS 271450Z 21011KT 23/19 A2988 RMK A01 T02270192  RH  085%=      5-min Rain = 0
KSVS 271455Z 21012G17KT 23/19 A2988 RMK A01 T02280190  RH  084%=      5-min Rain = 0
KSVS 271500Z 21013KT 23/19 A2989 RMK A01 T02280189  RH  083%=      5-min Rain = 0
KSVS 271505Z 21013KT 23/19 A2989 RMK A01 T02280188  RH  082%=      5-min Rain = 0
KSVS 271510Z 21011KT 23/19 A2988 RMK A01 T02310191  RH  083%=      5-min Rain = 0
KSVS 271515Z 21011KT 23/19 A2988 RMK A01 T02340192  RH  082%=      5-min Rain = 0
KSVS 271520Z 22010KT 23/19 A2988 RMK A01 T02340191  RH  081%=      5-min Rain = 0
KSVS 271525Z 22011KT 24/19 A2989 RMK A01 T02380192  RH  080%=      5-min Rain = 0
KSVS 271530Z 22012KT 24/19 A2989 RMK A01 T02400189  RH  078%=      5-min Rain = 0
KSVS 271535Z 24013KT 24/19 A2989 RMK A01 T02400189  RH  077%=      5-min Rain = 0
KSVS 271540Z 22009KT 24/19 A2989 RMK A01 T02410191  RH  078%=      5-min Rain = 0
KSVS 271545Z 23011KT 24/19 A2989 RMK A01 T02430189  RH  076%=      5-min Rain = 0
KSVS 271550Z 22012KT 24/19 A2988 RMK A01 T02410189  RH  077%=      5-min Rain = 0
KSVS 271555Z 21011G16KT 24/19 A2988 RMK A01 T02440189  RH  076%=      5-min Rain = 0
KSVS 271600Z 23012KT 24/19 A2988 RMK A01 T02440186  RH  074%=      5-min Rain = 0
KSVS 271605Z 22010G15KT 25/19 A2988 RMK A01 T02470190  RH  075%=      5-min Rain = 0
KSVS 271610Z 23009G14KT 25/19 A2988 RMK A01 T02490190  RH  074%=      5-min Rain = 0
KSVS 271615Z 23010KT 25/19 A2988 RMK A01 T02520193  RH  074%=      5-min Rain = 0
KSVS 271620Z 24011G17KT 26/19 A2988 RMK A01 T02560189  RH  070%=      5-min Rain = 0
KSVS 271625Z 23013KT 26/18 A2987 RMK A01 T02550181  RH  067%=      5-min Rain = 0
KSVS 271630Z 23012KT 25/18 A2987 RMK A01 T02540176  RH  065%=      5-min Rain = 0
KSVS 271635Z 22012KT 26/17 A2987 RMK A01 T02570174  RH  063%=      5-min Rain = 0
KSVS 271640Z 23013KT 26/17 A2987 RMK A01 T02570173  RH  063%=      5-min Rain = 0
KSVS 271645Z 23013KT 26/17 A2987 RMK A01 T02590170  RH  061%=      5-min Rain = 0
KSVS 271650Z 22011G16KT 26/18 A2987 RMK A01 T02640176  RH  061%=      5-min Rain = 0
KSVS 271655Z 23011KT 26/17 A2987 RMK A01 T02640169  RH  059%=      5-min Rain = 0
KSVS 271700Z 23013KT 26/17 A2987 RMK A01 T02640168  RH  058%=      5-min Rain = 0
KSVS 271705Z 23013KT 27/17 A2987 RMK A01 T02660165  RH  057%=      5-min Rain = 0
KSVS 271710Z 22012KT 27/16 A2986 RMK A01 T02670159  RH  054%=      5-min Rain = 0
KSVS 271715Z 23012KT 27/17 A2986 RMK A01 T02680167  RH  056%=      5-min Rain = 0
KSVS 271720Z 23011KT 27/17 A2986 RMK A01 T02690171  RH  058%=      5-min Rain = 0
KSVS 271725Z 22011G17KT 27/17 A2986 RMK A01 T02730166  RH  055%=      5-min Rain = 0
KSVS 271730Z 22011KT 28/16 A2986 RMK A01 T02750163  RH  053%=      5-min Rain = 0
KSVS 271735Z 22011G16KT 28/16 A2986 RMK A01 T02760160  RH  052%=      5-min Rain = 0
KSVS 271740Z 22011G16KT 28/17 A2986 RMK A01 T02790165  RH  053%=      5-min Rain = 0
KSVS 271745Z 21012KT 28/15 A2986 RMK A01 T02790154  RH  049%=      5-min Rain = 0
KSVS 271750Z 21011G16KT 28/15 A2986 RMK A01 T02780147  RH  047%=      5-min Rain = 0
KSVS 271755Z 22012KT 28/15 A2985 RMK A01 T02810145  RH  045%=      5-min Rain = 0
KSVS 271800Z 21012G18KT 28/14 A2985 RMK A01 T02810136  RH  043%=      5-min Rain = 0
KSVS 271805Z 21011KT 28/14 A2985 RMK A01 T02830137  RH  043%=      5-min Rain = 0.01
KSVS 271810Z 20012KT 28/14 A2985 RMK A01 T02800136  RH  043%=      5-min Rain = 0
KSVS 271815Z 20012G17KT 28/14 A2985 RMK A01 T02800135  RH  043%=      5-min Rain = 0
KSVS 271820Z 21011KT 29/13 A2985 RMK A01 T02850132  RH  041%=      5-min Rain = 0
KSVS 271825Z 22012G18KT 29/13 A2985 RMK A01 T02860134  RH  041%=      5-min Rain = 0
KSVS 271830Z 22011G16KT 29/13 A2985 RMK A01 T02860127  RH  039%=      5-min Rain = 0
KSVS 271835Z 21013G19KT 29/12 A2985 RMK A01 T02870124  RH  038%=      5-min Rain = 0
KSVS 271840Z 22012KT 29/13 A2984 RMK A01 T02870127  RH  039%=      5-min Rain = 0
KSVS 271845Z 22013G18KT 29/13 A2984 RMK A01 T02880126  RH  038%=      5-min Rain = 0
KSVS 271850Z 22012KT 29/14 A2984 RMK A01 T02890135  RH  041%=      5-min Rain = 0
KSVS 271855Z 20014G20KT 29/13 A2984 RMK A01 T02910125  RH  037%=      5-min Rain = 0
KSVS 271900Z 22015G20KT 29/12 A2983 RMK A01 T02910115  RH  035%=      5-min Rain = 0
KSVS 271905Z 22015KT 29/11 A2983 RMK A01 T02920107  RH  033%=      5-min Rain = 0
KSVS 271910Z 21014G20KT 29/13 A2983 RMK A01 T02930125  RH  037%=      5-min Rain = 0
KSVS 271915Z 20013G20KT 29/11 A2983 RMK A01 T02920106  RH  033%=      5-min Rain = 0
KSVS 271920Z 21016G21KT 29/10 A2983 RMK A01 T02930102  RH  032%=      5-min Rain = 0
KSVS 271925Z 22014G19KT 30/10 A2983 RMK A01 T02950096  RH  030%=      5-min Rain = 0
KSVS 271930Z 23015G20KT 30/10 A2982 RMK A01 T02950097  RH  030%=      5-min Rain = 0
KSVS 271935Z 23012G19KT 30/10 A2982 RMK A01 T02960102  RH  031%=      5-min Rain = 0
KSVS 271940Z 22014G20KT 30/10 A2982 RMK A01 T02970101  RH  031%=      5-min Rain = 0
KSVS 271945Z 22015G20KT 30/10 A2982 RMK A01 T02960097  RH  030%=      5-min Rain = 0
KSVS 271950Z 22011KT 30/11 A2982 RMK A01 T02970105  RH  032%=      5-min Rain = 0
KSVS 271955Z 22010G15KT 30/10 A2981 RMK A01 T02980101  RH  030%=      5-min Rain = 0
KSVS 272000Z 22013G19KT 30/11 A2981 RMK A01 T02990106  RH  031%=      5-min Rain = 0
KSVS 272005Z 21011G17KT 30/10 A2981 RMK A01 T02970101  RH  031%=      5-min Rain = 0
KSVS 272010Z 21008KT 30/09 A2981 RMK A01 T02980094  RH  029%=      5-min Rain = 0
KSVS 272015Z 21010KT 30/10 A2981 RMK A01 T03000102  RH  030%=      5-min Rain = 0
KSVS 272020Z 19011G17KT 30/11 A2981 RMK A01 T03000105  RH  031%=      5-min Rain = 0
KSVS 272025Z 18011G17KT 30/11 A2981 RMK A01 T02970109  RH  033%=      5-min Rain = 0
KSVS 272030Z 20011KT 30/11 A298 RMK A01 T02970114  RH  033%=      5-min Rain = 0
KSVS 272035Z 18012G18KT 30/10 A298 RMK A01 T02980103  RH  031%=      5-min Rain = 0
KSVS 272040Z 17014G19KT 30/11 A298 RMK A01 T02990111  RH  032%=      5-min Rain = 0
KSVS 272045Z 18011G16KT 30/11 A2979 RMK A01 T02990111  RH  033%=      5-min Rain = 0
KSVS 272050Z 19015G20KT 30/10 A2979 RMK A01 T03010104  RH  031%=      5-min Rain = 0
KSVS 272055Z 19014KT 30/10 A2979 RMK A01 T02970096  RH  030%=      5-min Rain = 0
KSVS 272100Z 19012KT 30/10 A2978 RMK A01 T02990103  RH  031%=      5-min Rain = 0
KSVS 272105Z 17013G19KT 30/12 A2978 RMK A01 T03000119  RH  034%=      5-min Rain = 0
KSVS 272110Z 18015G20KT 30/12 A2978 RMK A01 T03010115  RH  033%=      5-min Rain = 0
KSVS 272115Z 19015G21KT 30/10 A2978 RMK A01 T02980103  RH  031%=      5-min Rain = 0
KSVS 272120Z 18014G19KT 30/11 A2977 RMK A01 T03000109  RH  032%=      5-min Rain = 0
KSVS 272125Z 18014G19KT 30/11 A2977 RMK A01 T03010112  RH  032%=      5-min Rain = 0
KSVS 272130Z 18014G20KT 30/12 A2977 RMK A01 T03020122  RH  034%=      5-min Rain = 0
KSVS 272135Z 17015G20KT 30/12 A2976 RMK A01 T03030115  RH  033%=      5-min Rain = 0
KSVS 272140Z 17015KT 30/13 A2976 RMK A01 T03020126  RH  035%=      5-min Rain = 0
KSVS 272145Z 16016G22KT 30/13 A2976 RMK A01 T03040131  RH  036%=      5-min Rain = 0
KSVS 272150Z 15017G24KT 30/13 A2975 RMK A01 T03040126  RH  035%=      5-min Rain = 0
KSVS 272155Z 17016G23KT 30/13 A2975 RMK A01 T03020128  RH  036%=      5-min Rain = 0
KSVS 272200Z 16016G21KT 30/13 A2975 RMK A01 T03020130  RH  036%=      5-min Rain = 0
KSVS 272205Z 17016G21KT 30/13 A2974 RMK A01 T03010127  RH  036%=      5-min Rain = 0
KSVS 272210Z 18013G19KT 30/14 A2974 RMK A01 T03000138  RH  039%=      5-min Rain = 0
KSVS 272215Z 16016G24KT 30/14 A2974 RMK A01 T03000143  RH  040%=      5-min Rain = 0
KSVS 272220Z 16013G19KT 30/15 A2974 RMK A01 T02990150  RH  042%=      5-min Rain = 0
KSVS 272225Z 16019G25KT 30/16 A2974 RMK A01 T02980157  RH  045%=      5-min Rain = 0
KSVS 272230Z 16018KT 30/16 A2974 RMK A01 T02960158  RH  045%=      5-min Rain = 0
KSVS 272235Z 16016G21KT 30/16 A2974 RMK A01 T02970160  RH  046%=      5-min Rain = 0
KSVS 272240Z 16015KT 30/16 A2973 RMK A01 T02980162  RH  046%=      5-min Rain = 0
KSVS 272245Z 16016G21KT 30/16 A2973 RMK A01 T02960163  RH  047%=      5-min Rain = 0
KSVS 272250Z 15016KT 30/17 A2973 RMK A01 T02980165  RH  047%=      5-min Rain = 0
KSVS 272255Z 15018G23KT 30/16 A2973 RMK A01 T02960162  RH  047%=      5-min Rain = 0
KSVS 272300Z 15018G23KT 30/16 A2972 RMK A01 T02950162  RH  047%=      5-min Rain = 0
KSVS 272305Z 15019G25KT 30/16 A2972 RMK A01 T02950160  RH  046%=      5-min Rain = 0
KSVS 272310Z 16018G24KT 29/16 A2972 RMK A01 T02940158  RH  046%=      5-min Rain = 0
KSVS 272315Z 16016G21KT 29/16 A2972 RMK A01 T02930158  RH  046%=      5-min Rain = 0
KSVS 272320Z 16017G23KT 29/15 A2972 RMK A01 T02920154  RH  045%=      5-min Rain = 0
KSVS 272325Z 16019G25KT 29/16 A2972 RMK A01 T02920155  RH  045%=      5-min Rain = 0
KSVS 272330Z 16018G24KT 29/15 A2972 RMK A01 T02910152  RH  045%=      5-min Rain = 0
KSVS 272335Z 15017G22KT 29/15 A2972 RMK A01 T02900151  RH  045%=      5-min Rain = 0
KSVS 272340Z 16016G22KT 29/15 A2972 RMK A01 T02890150  RH  045%=      5-min Rain = 0
KSVS 272345Z 15019KT 29/15 A2972 RMK A01 T02890145  RH  043%=      5-min Rain = 0
KSVS 272350Z 16019G24KT 29/14 A2972 RMK A01 T02880142  RH  043%=      5-min Rain = 0
KSVS 272355Z 16016G22KT 29/15 A2972 RMK A01 T02870145  RH  044%=      5-min Rain = 0
KSVS 280000Z 16016G24KT 29/15 A2972 RMK A01 T02870146  RH  044%=      5-min Rain = 0
KSVS 280005Z 16017KT 29/15 A2971 RMK A01 T02860146  RH  044%=      5-min Rain = 0
KSVS 280010Z 16016G21KT 29/15 A2971 RMK A01 T02850149  RH  046%=      5-min Rain = 0
KSVS 280015Z 16016G22KT 28/15 A2971 RMK A01 T02820151  RH  047%=      5-min Rain = 0
KSVS 280020Z 15016G22KT 28/15 A2971 RMK A01 T02820153  RH  048%=      5-min Rain = 0
KSVS 280025Z 16016KT 28/16 A2971 RMK A01 T02810156  RH  049%=      5-min Rain = 0
KSVS 280030Z 15014G19KT 28/16 A2971 RMK A01 T02790159  RH  050%=      5-min Rain = 0
KSVS 280035Z 16018G23KT 28/15 A2971 RMK A01 T02780154  RH  049%=      5-min Rain = 0
KSVS 280040Z 16017G22KT 28/15 A2971 RMK A01 T02770153  RH  049%=      5-min Rain = 0
KSVS 280045Z 16015G20KT 28/15 A2971 RMK A01 T02750154  RH  050%=      5-min Rain = 0
KSVS 280050Z 15014KT 27/16 A2971 RMK A01 T02730156  RH  051%=      5-min Rain = 0
KSVS 280055Z 15013G18KT 27/16 A2971 RMK A01 T02710160  RH  053%=      5-min Rain = 0
KSVS 280100Z 15011KT 27/17 A2971 RMK A01 T02670166  RH  056%=      5-min Rain = 0
KSVS 280105Z 15013G19KT 27/17 A2971 RMK A01 T02650168  RH  058%=      5-min Rain = 0
KSVS 280110Z 15014KT 27/17 A2971 RMK A01 T02650166  RH  057%=      5-min Rain = 0
KSVS 280115Z 15012KT 26/17 A2971 RMK A01 T02610169  RH  060%=      5-min Rain = 0
KSVS 280120Z 15013KT 26/17 A2971 RMK A01 T02590170  RH  061%=      5-min Rain = 0
KSVS 280125Z 15014KT 26/17 A297 RMK A01 T02580167  RH  060%=      5-min Rain = 0
KSVS 280130Z 15013G18KT 26/17 A297 RMK A01 T02550167  RH  061%=      5-min Rain = 0
KSVS 280135Z 15013KT 25/17 A297 RMK A01 T02520166  RH  062%=      5-min Rain = 0
KSVS 280140Z 15013KT 25/17 A297 RMK A01 T02510165  RH  062%=      5-min Rain = 0
KSVS 280145Z 14012KT 25/17 A297 RMK A01 T02480165  RH  063%=      5-min Rain = 0
KSVS 280150Z 14012KT 24/17 A297 RMK A01 T02440166  RH  065%=      5-min Rain = 0
KSVS 280155Z 14012KT 24/17 A297 RMK A01 T02410168  RH  067%=      5-min Rain = 0
KSVS 280200Z 14013KT 24/17 A297 RMK A01 T02400170  RH  068%=      5-min Rain = 0
KSVS 280205Z 14013KT 24/17 A297 RMK A01 T02390171  RH  069%=      5-min Rain = 0
KSVS 280210Z 14013KT 24/17 A297 RMK A01 T02400173  RH  069%=      5-min Rain = 0
KSVS 280215Z 14012KT 24/17 A297 RMK A01 T02380174  RH  071%=      5-min Rain = 0
KSVS 280220Z 14012KT 24/18 A297 RMK A01 T02360175  RH  072%=      5-min Rain = 0
KSVS 280225Z 14012KT 24/18 A297 RMK A01 T02350177  RH  073%=      5-min Rain = 0
KSVS 280230Z 14012KT 24/18 A297 RMK A01 T02350178  RH  074%=      5-min Rain = 0
KSVS 280235Z 14011KT 23/18 A2971 RMK A01 T02330179  RH  075%=      5-min Rain = 0
KSVS 280240Z 14012KT 23/18 A297 RMK A01 T02320180  RH  076%=      5-min Rain = 0
KSVS 280245Z 14011KT 23/18 A297 RMK A01 T02310180  RH  077%=      5-min Rain = 0
KSVS 280250Z 14012KT 23/18 A297 RMK A01 T02310181  RH  078%=      5-min Rain = 0
KSVS 280255Z 14013KT 23/18 A297 RMK A01 T02310182  RH  078%=      5-min Rain = 0
KSVS 280300Z 15013KT 23/18 A2971 RMK A01 T02310182  RH  078%=      5-min Rain = 0
KSVS 280305Z 14012KT 23/18 A2971 RMK A01 T02310182  RH  078%=      5-min Rain = 0
KSVS 280310Z 14013KT 23/18 A2971 RMK A01 T02310182  RH  078%=      5-min Rain = 0
KSVS 280315Z 14012KT 23/18 A2971 RMK A01 T02300183  RH  079%=      5-min Rain = 0
KSVS 280320Z 15012KT 23/18 A2971 RMK A01 T02290183  RH  079%=      5-min Rain = 0
KSVS 280325Z 15012KT 23/18 A2971 RMK A01 T02300183  RH  079%=      5-min Rain = 0
KSVS 280330Z 15012KT 23/18 A2971 RMK A01 T02300183  RH  079%=      5-min Rain = 0
KSVS 280335Z 15012KT 23/18 A2971 RMK A01 T02310183  RH  078%=      5-min Rain = 0
KSVS 280340Z 15013KT 23/18 A2971 RMK A01 T02300183  RH  079%=      5-min Rain = 0
KSVS 280345Z 15014KT 23/18 A2971 RMK A01 T02330183  RH  078%=      5-min Rain = 0
KSVS 280350Z 16014G19KT 24/18 A2971 RMK A01 T02350183  RH  077%=      5-min Rain = 0
KSVS 280355Z 16015KT 24/18 A2972 RMK A01 T02360184  RH  077%=      5-min Rain = 0
KSVS 280400Z 16018G23KT 24/19 A2971 RMK A01 T02360185  RH  077%=      5-min Rain = 0
KSVS 280405Z 16016G21KT 24/19 A2971 RMK A01 T02360185  RH  077%=      5-min Rain = 0
KSVS 280410Z 16018G23KT 24/19 A2971 RMK A01 T02370185  RH  077%=      5-min Rain = 0
KSVS 280415Z 16017G22KT 24/19 A2971 RMK A01 T02360185  RH  077%=      5-min Rain = 0
KSVS 280420Z 16017KT 24/19 A2971 RMK A01 T02350185  RH  078%=      5-min Rain = 0
KSVS 280425Z 16017G22KT 24/19 A2971 RMK A01 T02350185  RH  078%=      5-min Rain = 0
KSVS 280430Z 16017G22KT 24/19 A2971 RMK A01 T02350185  RH  078%=      5-min Rain = 0
KSVS 280435Z 16016G21KT 24/19 A2971 RMK A01 T02350185  RH  077%=      5-min Rain = 0
KSVS 280440Z 16017G23KT 23/18 A2971 RMK A01 T02340184  RH  078%=      5-min Rain = 0
KSVS 280445Z 16017G23KT 24/18 A2971 RMK A01 T02350184  RH  077%=      5-min Rain = 0
KSVS 280450Z 16016G21KT 23/18 A2971 RMK A01 T02330184  RH  078%=      5-min Rain = 0
KSVS 280455Z 16017KT 23/18 A2971 RMK A01 T02330184  RH  078%=      5-min Rain = 0

Page generated in 0.0329 seconds.